Time;durP1;ratioP1;P1;durP2;ratioP2;P2;SDS_P1;SDS_P2;PMS_P1;PMS_P2;Temp;Humidity;BMP_temperature;BMP_pressure;BME280_temperature;BME280_humidity;BME280_pressure;Samples;Min_cycle;Max_cycle;Signal;HPM_P1;HPM_P2
2023/01/30 00:04:52;;;;;;;6.40;5.00;;;21.50;57.90;;;;;;222233;1263;22528;-51
2023/01/30 00:09:57;;;;;;;6.30;4.80;;;21.40;57.70;;;;;;222426;1256;25422;-52
2023/01/30 00:15:02;;;;;;;5.80;4.40;;;21.30;58.10;;;;;;222422;1263;25291;-50
2023/01/30 00:20:08;;;;;;;4.40;4.00;;;21.20;58.20;;;;;;222282;1263;22516;-46
2023/01/30 00:25:12;;;;;;;6.40;4.10;;;21.20;58.40;;;;;;222392;1266;22683;-51
2023/01/30 00:30:17;;;;;;;4.50;3.90;;;21.60;58.70;;;;;;222321;1264;25565;-51
2023/01/30 00:35:27;;;;;;;4.00;3.70;;;22.10;56.50;;;;;;222173;1247;22569;-51
2023/01/30 00:40:31;;;;;;;5.30;4.10;;;22.40;55.90;;;;;;222234;1263;22534;-52
2023/01/30 00:51:03;;;;;;;7.10;4.40;;;22.70;55.00;;;;;;222431;1264;25406;-49
2023/01/30 00:56:07;;;;;;;6.10;4.70;;;22.70;54.70;;;;;;222350;1263;25306;-54
2023/01/30 01:01:11;;;;;;;4.70;3.90;;;22.90;54.70;;;;;;222205;1263;22521;-53
2023/01/30 01:06:16;;;;;;;5.20;3.80;;;23.00;54.60;;;;;;222133;1261;24240;-51
2023/01/30 01:11:23;;;;;;;4.70;3.70;;;23.00;54.40;;;;;;221970;1263;22625;-54
2023/01/30 01:16:29;;;;;;;4.40;3.70;;;23.00;54.10;;;;;;222397;1259;25339;-51
2023/01/30 01:21:33;;;;;;;4.90;4.20;;;23.00;53.80;;;;;;223763;1263;22746;-52
2023/01/30 01:26:41;;;;;;;3.90;3.50;;;23.00;53.60;;;;;;222215;1259;22541;-51
2023/01/30 01:31:46;;;;;;;4.80;4.00;;;23.00;53.60;;;;;;221944;1266;25346;-51
2023/01/30 01:36:51;;;;;;;4.30;3.90;;;22.90;53.40;;;;;;224767;1255;24218;-51
2023/01/30 01:41:56;;;;;;;4.00;3.60;;;23.00;53.20;;;;;;228516;1259;22538;-52
2023/01/30 01:47:01;;;;;;;3.70;3.40;;;23.10;53.20;;;;;;222175;1263;25458;-53
2023/01/30 01:52:13;;;;;;;4.10;3.30;;;23.20;52.60;;;;;;223239;1258;22557;-51
2023/01/30 01:57:21;;;;;;;;;;;23.20;52.60;;;;;;228229;1263;22571;-53
2023/01/30 02:02:25;;;;;;;3.80;3.20;;;23.30;52.80;;;;;;221656;1269;23883;-52
2023/01/30 02:07:36;;;;;;;3.60;3.30;;;23.20;52.30;;;;;;221927;1256;23025;-52
2023/01/30 02:12:40;;;;;;;4.40;3.70;;;23.20;52.80;;;;;;221608;1259;164393;-50
2023/01/30 02:17:44;;;;;;;4.10;3.60;;;23.30;52.40;;;;;;221920;1257;25275;-53
2023/01/30 02:23:28;;;;;;;3.50;3.20;;;23.30;52.30;;;;;;221836;1256;24289;-52
2023/01/30 02:28:42;;;;;;;4.60;3.40;;;23.40;52.10;;;;;;221899;1253;24213;-53
2023/01/30 02:33:55;;;;;;;3.60;3.30;;;23.30;51.90;;;;;;221728;1267;22523;-53
2023/01/30 02:39:29;;;;;;;6.00;3.50;;;23.40;51.70;;;;;;221591;1256;23839;-52
2023/01/30 02:45:02;;;;;;;3.80;3.50;;;23.40;51.80;;;;;;221444;1262;24219;-52
2023/01/30 02:50:09;;;;;;;3.70;3.40;;;23.40;51.60;;;;;;221731;1256;26046;-52
2023/01/30 02:55:26;;;;;;;3.40;3.10;;;23.40;51.70;;;;;;221937;1256;22657;-53
2023/01/30 03:00:52;;;;;;;3.30;3.00;;;23.40;51.50;;;;;;222104;1266;24885;-53
2023/01/30 03:06:18;;;;;;;3.40;3.10;;;23.40;51.80;;;;;;222125;1254;25301;-54
2023/01/30 03:11:32;;;;;;;3.40;2.80;;;23.40;51.40;;;;;;222247;1263;22530;-51
2023/01/30 03:16:40;;;;;;;3.70;3.10;;;23.40;51.70;;;;;;222227;1254;25348;-53
2023/01/30 03:21:44;;;;;;;3.60;3.30;;;23.40;51.30;;;;;;222326;1266;22643;-54
2023/01/30 03:27:06;;;;;;;2.70;2.50;;;23.50;51.20;;;;;;222323;1266;22524;-51
2023/01/30 03:32:11;;;;;;;3.30;3.00;;;23.50;51.50;;;;;;221990;1266;22641;-52
2023/01/30 03:37:16;;;;;;;3.50;3.20;;;23.50;51.70;;;;;;222322;1263;22529;-51
2023/01/30 03:42:20;;;;;;;3.60;3.10;;;23.60;51.00;;;;;;222261;1250;24232;-53
2023/01/30 03:47:24;;;;;;;4.20;2.80;;;23.60;50.90;;;;;;222325;1263;22535;-53
2023/01/30 03:52:29;;;;;;;4.30;3.10;;;23.60;51.10;;;;;;222395;1266;22744;-50
2023/01/30 03:57:33;;;;;;;3.20;3.00;;;23.60;50.80;;;;;;222008;1263;22520;-53
2023/01/30 04:02:37;;;;;;;3.40;3.10;;;23.60;50.90;;;;;;222254;1256;22610;-53
2023/01/30 04:07:41;;;;;;;2.80;2.60;;;23.60;51.40;;;;;;222281;1263;22530;-52
2023/01/30 04:12:46;;;;;;;3.20;2.90;;;23.60;50.60;;;;;;222224;1259;23800;-52
2023/01/30 04:17:52;;;;;;;3.10;2.80;;;23.70;50.80;;;;;;222091;1269;24785;-52
2023/01/30 04:23:17;;;;;;;3.30;3.00;;;23.70;50.60;;;;;;222281;1263;25236;-52
2023/01/30 04:28:21;;;;;;;3.40;3.00;;;23.70;50.30;;;;;;221997;1263;24286;-58
2023/01/30 04:33:26;;;;;;;3.10;2.90;;;23.70;50.20;;;;;;223096;1263;24039;-53
2023/01/30 04:38:32;;;;;;;2.80;2.60;;;23.80;50.10;;;;;;222167;1247;26604;-52
2023/01/30 04:43:37;;;;;;;2.90;2.70;;;23.80;50.00;;;;;;222281;1269;24030;-51
2023/01/30 04:48:58;;;;;;;3.50;2.70;;;23.80;50.20;;;;;;222339;1266;22652;-52
2023/01/30 04:54:03;;;;;;;4.10;2.70;;;23.70;50.10;;;;;;222342;1247;22548;-53
2023/01/30 04:59:07;;;;;;;2.50;2.30;;;23.70;50.20;;;;;;222109;1248;24310;-52
2023/01/30 05:04:15;;;;;;;2.80;2.60;;;23.80;50.30;;;;;;222186;1257;22527;-52
2023/01/30 05:09:19;;;;;;;2.70;2.30;;;23.70;50.10;;;;;;222242;1264;22610;-54
2023/01/30 05:14:23;;;;;;;2.90;2.60;;;23.80;50.40;;;;;;222201;1256;24206;-52
2023/01/30 05:19:27;;;;;;;2.90;2.50;;;23.70;50.40;;;;;;222281;1262;22557;-51
2023/01/30 05:24:32;;;;;;;3.10;2.60;;;23.60;50.80;;;;;;222185;1259;22532;-52
2023/01/30 05:29:36;;;;;;;2.90;2.60;;;23.60;50.60;;;;;;222177;1256;25266;-53
2023/01/30 05:34:40;;;;;;;2.50;2.30;;;23.40;50.60;;;;;;222273;1269;22527;-53
2023/01/30 05:39:44;;;;;;;3.50;2.60;;;23.30;51.20;;;;;;222136;1266;22917;-54
2023/01/30 05:44:49;;;;;;;2.60;2.40;;;23.20;51.60;;;;;;222169;1256;24206;-50
2023/01/30 05:49:53;;;;;;;2.30;2.20;;;23.10;51.20;;;;;;222245;1254;24285;-52
2023/01/30 05:54:57;;;;;;;2.60;2.40;;;23.00;51.10;;;;;;222237;1247;24209;-51
2023/01/30 06:00:03;;;;;;;2.20;2.10;;;22.90;51.40;;;;;;222191;1266;25478;-53
2023/01/30 06:05:15;;;;;;;2.40;2.30;;;22.80;51.30;;;;;;222023;1269;25507;-51
2023/01/30 06:10:20;;;;;;;2.40;2.20;;;22.70;51.60;;;;;;222254;1254;22971;-54
2023/01/30 06:15:24;;;;;;;2.50;2.30;;;22.60;52.00;;;;;;221947;1263;23955;-52
2023/01/30 06:20:28;;;;;;;2.60;2.40;;;22.50;52.10;;;;;;222029;1263;22619;-50
2023/01/30 06:25:32;;;;;;;2.30;2.10;;;22.40;52.20;;;;;;222166;1259;24196;-52
2023/01/30 06:30:36;;;;;;;2.90;2.60;;;22.40;52.40;;;;;;222045;1251;24238;-52
2023/01/30 06:35:42;;;;;;;2.00;1.90;;;22.30;52.50;;;;;;222296;1266;22531;-51
2023/01/30 06:40:48;;;;;;;2.50;2.30;;;22.20;52.50;;;;;;222194;1266;22638;-51
2023/01/30 06:45:52;;;;;;;2.50;2.40;;;22.10;52.60;;;;;;222290;1246;23869;-52
2023/01/30 06:50:56;;;;;;;2.40;2.30;;;22.00;52.80;;;;;;222309;1258;22645;-53
2023/01/30 06:56:01;;;;;;;2.80;2.40;;;22.00;52.90;;;;;;222221;1259;22524;-51
2023/01/30 07:01:05;;;;;;;4.50;2.70;;;22.00;53.80;;;;;;222238;1247;22580;-47
2023/01/30 07:06:09;;;;;;;6.00;2.60;;;21.90;53.60;;;;;;221734;1263;22521;-49
2023/01/30 07:11:13;;;;;;;2.70;2.40;;;21.80;54.40;;;;;;221829;1256;25374;-50
2023/01/30 07:16:18;;;;;;;6.60;2.60;;;21.80;54.40;;;;;;225176;1263;22671;-48
2023/01/30 07:21:22;;;;;;;10.80;2.80;;;22.30;53.70;;;;;;222573;1259;24033;-52
2023/01/30 07:26:28;;;;;;;5.20;2.60;;;22.50;53.30;;;;;;221930;1269;22517;-51
2023/01/30 07:31:32;;;;;;;2.40;2.10;;;22.70;52.60;;;;;;221985;1250;22537;-52
2023/01/30 07:36:36;;;;;;;4.50;3.00;;;22.90;52.00;;;;;;222075;1253;23899;-51
2023/01/30 07:41:40;;;;;;;11.40;3.20;;;22.90;51.80;;;;;;222935;1263;23795;-54
2023/01/30 07:46:45;;;;;;;6.20;3.00;;;22.90;51.30;;;;;;221909;1268;22540;-52
2023/01/30 07:51:50;;;;;;;4.00;2.90;;;22.90;51.10;;;;;;222124;1263;23878;-52
2023/01/30 07:56:53;;;;;;;8.60;2.80;;;22.90;51.40;;;;;;222156;1250;24971;-52
2023/01/30 08:01:58;;;;;;;3.70;2.60;;;23.00;50.30;;;;;;222270;1263;22631;-50
2023/01/30 08:07:02;;;;;;;5.20;3.40;;;23.10;50.20;;;;;;222273;1263;22563;-52
2023/01/30 08:12:06;;;;;;;11.70;3.10;;;23.10;50.30;;;;;;222185;1256;24285;-58
2023/01/30 08:17:10;;;;;;;5.40;2.60;;;23.00;50.30;;;;;;222206;1269;22656;-53
2023/01/30 08:22:14;;;;;;;5.10;2.50;;;23.00;50.70;;;;;;222244;1264;23061;-54
2023/01/30 08:27:18;;;;;;;4.60;2.50;;;23.00;50.50;;;;;;222408;1266;22525;-53
2023/01/30 08:32:23;;;;;;;5.50;2.30;;;23.00;50.60;;;;;;222154;1263;22523;-54
2023/01/30 08:37:27;;;;;;;3.10;2.40;;;23.00;50.20;;;;;;222491;1269;22541;-54
2023/01/30 08:42:31;;;;;;;3.90;2.60;;;23.00;50.10;;;;;;222388;1259;22772;-53
2023/01/30 08:47:35;;;;;;;3.40;2.40;;;23.00;50.00;;;;;;222301;1266;25202;-55
2023/01/30 08:52:39;;;;;;;4.00;2.30;;;23.10;50.20;;;;;;222320;1269;22528;-54
2023/01/30 08:57:43;;;;;;;5.10;2.50;;;23.10;49.80;;;;;;222296;1263;23815;-53
2023/01/30 09:02:47;;;;;;;3.00;2.20;;;23.10;49.60;;;;;;222442;1264;22537;-52
2023/01/30 09:07:51;;;;;;;4.90;2.60;;;23.10;49.60;;;;;;222355;1257;24200;-51
2023/01/30 09:12:55;;;;;;;2.70;2.00;;;23.20;49.40;;;;;;222032;1246;23993;-53
2023/01/30 09:17:59;;;;;;;4.50;2.50;;;23.20;49.30;;;;;;222021;1261;22743;-53
2023/01/30 09:23:03;;;;;;;5.50;2.30;;;23.30;49.20;;;;;;221741;1266;26504;-52
2023/01/30 09:28:08;;;;;;;3.10;2.30;;;23.30;49.40;;;;;;221767;1256;24194;-52
2023/01/30 09:33:15;;;;;;;2.90;2.10;;;23.30;49.20;;;;;;221847;1266;24228;-52
2023/01/30 09:38:20;;;;;;;3.40;2.50;;;23.30;49.30;;;;;;221944;1263;24065;-55
2023/01/30 09:43:46;;;;;;;3.50;2.20;;;23.40;49.20;;;;;;221938;1266;23214;-53
2023/01/30 09:49:07;;;;;;;2.90;2.20;;;23.40;49.20;;;;;;221719;1247;26768;-54
2023/01/30 09:54:24;;;;;;;3.10;2.40;;;23.40;49.30;;;;;;221799;1268;22589;-55
2023/01/30 09:59:44;;;;;;;2.40;2.00;;;23.40;49.10;;;;;;222065;1258;22768;-52
2023/01/30 10:04:49;;;;;;;3.00;2.00;;;23.40;49.40;;;;;;222006;1264;22737;-52
2023/01/30 10:10:36;;;;;;;2.10;1.90;;;23.40;49.40;;;;;;222033;1269;24334;-50
2023/01/30 10:16:09;;;;;;;3.20;2.20;;;23.40;49.30;;;;;;222006;1263;24251;-52
2023/01/30 10:21:40;;;;;;;3.70;2.20;;;23.40;49.40;;;;;;221716;1266;23867;-52
2023/01/30 10:26:45;;;;;;;2.40;2.20;;;23.40;49.30;;;;;;222092;1254;23870;-51
2023/01/30 10:31:52;;;;;;;3.20;2.00;;;23.50;49.30;;;;;;222368;1266;22639;-48
2023/01/30 10:37:06;;;;;;;3.20;2.40;;;23.50;49.70;;;;;;222058;1266;23100;-52
2023/01/30 10:42:16;;;;;;;3.70;2.20;;;23.50;49.50;;;;;;222190;1263;25214;-53
2023/01/30 10:47:39;;;;;;;3.80;2.30;;;23.50;49.30;;;;;;222199;1260;22527;-53
2023/01/30 10:53:21;;;;;;;2.90;2.30;;;23.50;49.60;;;;;;222185;1266;22639;-53
2023/01/30 10:58:44;;;;;;;4.30;2.40;;;23.50;49.80;;;;;;221895;1254;25419;-52
2023/01/30 11:04:06;;;;;;;2.30;2.10;;;23.50;49.50;;;;;;221995;1269;25367;-53
2023/01/30 11:09:10;;;;;;;2.70;2.50;;;23.40;49.70;;;;;;222261;1259;22539;-51
2023/01/30 11:14:14;;;;;;;2.60;2.30;;;23.40;50.00;;;;;;222199;1266;25428;-50
2023/01/30 11:19:25;;;;;;;2.50;2.20;;;23.20;49.70;;;;;;222227;1260;25402;-51
2023/01/30 11:24:30;;;;;;;5.80;2.30;;;23.10;50.20;;;;;;222329;1259;22732;-52
2023/01/30 11:29:38;;;;;;;2.80;2.10;;;22.90;50.20;;;;;;222272;1259;22744;-53
2023/01/30 11:34:43;;;;;;;3.50;2.30;;;22.90;50.30;;;;;;222277;1260;22753;-54
2023/01/30 11:39:51;;;;;;;2.00;1.80;;;22.70;50.50;;;;;;222143;1255;24401;-53
2023/01/30 11:44:58;;;;;;;2.90;2.10;;;22.70;50.50;;;;;;222524;1259;22972;-53
2023/01/30 11:50:25;;;;;;;2.50;2.10;;;22.70;50.20;;;;;;222409;1259;22705;-51
2023/01/30 11:55:36;;;;;;;2.30;2.10;;;22.70;51.10;;;;;;222370;1257;22527;-54
2023/01/30 12:00:45;;;;;;;2.30;2.10;;;22.50;50.60;;;;;;222296;1260;22537;-49
2023/01/30 12:05:49;;;;;;;2.00;1.90;;;22.40;50.80;;;;;;222446;1263;25626;-52
2023/01/30 12:10:58;;;;;;;3.60;2.20;;;22.30;50.90;;;;;;222477;1264;23886;-53
2023/01/30 12:16:23;;;;;;;2.40;2.20;;;22.20;51.00;;;;;;222470;1263;22925;-52
2023/01/30 12:21:43;;;;;;;2.60;2.40;;;22.10;51.60;;;;;;222241;1251;22668;-53
2023/01/30 12:27:03;;;;;;;2.40;2.20;;;21.90;51.30;;;;;;222233;1266;22646;-60
2023/01/30 12:32:15;;;;;;;4.30;2.20;;;21.90;51.70;;;;;;222252;1263;22537;-51
2023/01/30 12:37:38;;;;;;;2.90;2.30;;;21.90;51.90;;;;;;222339;1254;22527;-49
2023/01/30 12:43:23;;;;;;;2.50;2.20;;;22.00;51.90;;;;;;222259;1263;22554;-53
2023/01/30 12:48:37;;;;;;;2.20;2.00;;;22.40;50.70;;;;;;222221;1254;24218;-51
2023/01/30 12:54:18;;;;;;;2.60;2.40;;;22.60;50.10;;;;;;222220;1266;22528;-51
2023/01/30 12:59:52;;;;;;;3.50;2.40;;;22.70;49.90;;;;;;222469;1256;22530;-54
2023/01/30 13:05:24;;;;;;;2.10;1.90;;;22.80;50.00;;;;;;222406;1263;22639;-51
2023/01/30 13:10:34;;;;;;;1.70;1.60;;;22.90;49.50;;;;;;222386;1260;24102;-47
2023/01/30 13:16:08;;;;;;;2.50;2.30;;;23.00;49.30;;;;;;222343;1263;24645;-52
2023/01/30 13:21:22;;;;;;;2.10;1.90;;;23.00;49.30;;;;;;222367;1263;22990;-51
2023/01/30 13:26:31;;;;;;;2.20;2.10;;;23.10;49.20;;;;;;222404;1254;25288;-51
2023/01/30 13:31:38;;;;;;;2.70;2.10;;;23.10;49.10;;;;;;222451;1260;23867;-51
2023/01/30 13:37:13;;;;;;;1.80;1.70;;;23.10;49.10;;;;;;222436;1254;23955;-48
2023/01/30 13:42:45;;;;;;;2.30;2.10;;;23.20;48.90;;;;;;222493;1266;25406;-52
2023/01/30 13:47:52;;;;;;;1.90;1.80;;;23.20;48.80;;;;;;222550;1264;22543;-51
2023/01/30 13:53:04;;;;;;;2.50;2.30;;;23.30;48.70;;;;;;222432;1254;24231;-51
2023/01/30 13:58:29;;;;;;;2.50;1.90;;;23.30;48.60;;;;;;222444;1266;24202;-47
2023/01/30 14:03:34;;;;;;;2.00;1.90;;;23.30;48.50;;;;;;222540;1256;24291;-55
2023/01/30 14:08:44;;;;;;;2.20;2.00;;;23.40;48.50;;;;;;222308;1269;22638;-55
2023/01/30 14:14:02;;;;;;;2.00;1.90;;;23.30;48.50;;;;;;222523;1256;185928;-54
2023/01/30 14:19:59;;;;;;;1.90;1.70;;;23.40;48.20;;;;;;222232;1266;22539;-53
2023/01/30 14:25:21;;;;;;;2.00;1.90;;;23.40;48.10;;;;;;220856;1276;22541;-56
2023/01/30 14:30:38;;;;;;;2.10;1.90;;;23.40;48.00;;;;;;221016;1264;23332;-53
2023/01/30 14:35:42;;;;;;;2.10;1.80;;;23.50;48.00;;;;;;221006;1278;22964;-54
2023/01/30 14:41:07;;;;;;;2.20;2.10;;;23.40;48.30;;;;;;221000;1260;23269;-54
2023/01/30 14:46:21;;;;;;;2.60;2.20;;;23.40;47.80;;;;;;220804;1264;22552;-53
2023/01/30 14:51:28;;;;;;;2.30;2.10;;;23.30;47.60;;;;;;220947;1267;22564;-54
2023/01/30 14:56:49;;;;;;;7.80;3.30;;;23.30;47.30;;;;;;220842;1276;22761;-54
2023/01/30 15:02:05;;;;;;;7.80;3.70;;;23.30;47.60;;;;;;222645;1263;25257;-52
2023/01/30 15:07:23;;;;;;;11.40;3.50;;;23.40;47.30;;;;;;223810;1264;22525;-53
2023/01/30 15:13:15;;;;;;;12.80;3.70;;;23.40;47.40;;;;;;222303;1255;22551;-53
2023/01/30 15:18:32;;;;;;;9.20;4.00;;;23.40;47.50;;;;;;221172;1274;26840;-54
2023/01/30 15:23:56;;;;;;;8.90;4.00;;;23.60;46.60;;;;;;221029;1274;24031;-51
2023/01/30 15:29:19;;;;;;;9.10;3.60;;;23.90;46.80;;;;;;220824;1267;22534;-56
2023/01/30 15:34:28;;;;;;;7.80;3.60;;;23.80;47.10;;;;;;220508;1272;22557;-55
2023/01/30 15:39:33;;;;;;;8.50;3.50;;;23.70;47.70;;;;;;221405;1264;22551;-52
2023/01/30 15:44:48;;;;;;;9.50;3.50;;;23.60;48.40;;;;;;220568;1271;22881;-52
2023/01/30 15:50:07;;;;;;;10.20;3.40;;;23.40;49.50;;;;;;220462;1257;24223;-53
2023/01/30 15:55:30;;;;;;;11.50;3.50;;;23.30;49.70;;;;;;222592;1255;22528;-51
2023/01/30 16:00:48;;;;;;;9.40;3.90;;;23.30;49.90;;;;;;222000;1262;22924;-54
2023/01/30 16:05:54;;;;;;;5.70;2.90;;;23.20;50.20;;;;;;223260;1257;22519;-54
2023/01/30 16:10:59;;;;;;;7.10;3.90;;;23.10;50.70;;;;;;221661;1264;22623;-54
2023/01/30 16:16:18;;;;;;;5.30;3.30;;;23.10;50.50;;;;;;222015;1255;25425;-53
2023/01/30 16:21:31;;;;;;;6.80;3.20;;;23.00;50.60;;;;;;221816;1248;22529;-54
2023/01/30 16:26:41;;;;;;;7.10;3.30;;;22.90;50.80;;;;;;222128;1263;25934;-53
2023/01/30 16:31:48;;;;;;;6.10;3.20;;;22.80;50.80;;;;;;221886;1248;25435;-55
2023/01/30 16:36:54;;;;;;;4.60;2.70;;;22.80;50.70;;;;;;221478;1248;24295;-51
2023/01/30 16:42:00;;;;;;;7.90;2.90;;;22.70;50.30;;;;;;221672;1263;22653;-51
2023/01/30 16:47:23;;;;;;;7.60;3.20;;;22.80;50.50;;;;;;221787;1264;25272;-50
2023/01/30 16:52:39;;;;;;;5.80;3.00;;;22.80;49.70;;;;;;222032;1260;22574;-55
2023/01/30 16:57:52;;;;;;;11.10;2.70;;;22.60;50.10;;;;;;222286;1254;24341;-51
2023/01/30 17:03:16;;;;;;;6.60;2.50;;;22.60;50.10;;;;;;222542;1260;24488;-55
2023/01/30 17:08:30;;;;;;;4.30;2.30;;;22.40;50.00;;;;;;222237;1267;24288;-45
2023/01/30 17:13:42;;;;;;;9.60;2.80;;;22.30;50.10;;;;;;222436;1264;22530;-47
2023/01/30 17:18:49;;;;;;;4.40;2.40;;;22.30;50.30;;;;;;222097;1264;22535;-48
2023/01/30 17:23:56;;;;;;;5.00;2.40;;;22.10;50.30;;;;;;222017;1267;22531;-51
2023/01/30 17:29:01;;;;;;;4.10;2.70;;;22.00;49.80;;;;;;222228;1264;22731;-49
2023/01/30 17:34:07;;;;;;;4.20;2.10;;;21.90;50.30;;;;;;222368;1251;25240;-48
2023/01/30 17:39:18;;;;;;;3.50;2.50;;;21.90;50.00;;;;;;222139;1257;22524;-47
2023/01/30 17:44:25;;;;;;;3.90;2.40;;;21.90;50.20;;;;;;222135;1251;24205;-44
2023/01/30 17:49:31;;;;;;;7.40;2.30;;;21.80;49.60;;;;;;222142;1258;22537;-45
2023/01/30 17:54:36;;;;;;;5.20;2.60;;;21.70;49.70;;;;;;222053;1267;23870;-52
2023/01/30 17:59:42;;;;;;;3.00;2.10;;;21.80;49.60;;;;;;221795;1257;23123;-49
2023/01/30 18:04:48;;;;;;;2.90;1.90;;;22.10;48.50;;;;;;221999;1256;22533;-51
2023/01/30 18:09:54;;;;;;;5.10;2.00;;;22.60;48.00;;;;;;222538;1261;25808;-52
2023/01/30 18:15:00;;;;;;;3.70;2.40;;;22.90;47.00;;;;;;223545;1256;24208;-48
2023/01/30 18:20:06;;;;;;;4.30;2.10;;;23.20;46.20;;;;;;221960;1254;22554;-47
2023/01/30 18:25:14;;;;;;;3.80;1.80;;;23.30;46.10;;;;;;222071;1255;24184;-47
2023/01/30 18:30:23;;;;;;;5.50;2.40;;;23.30;45.80;;;;;;221873;1254;23569;-49
2023/01/30 18:35:29;;;;;;;3.20;1.90;;;23.40;45.60;;;;;;222127;1250;22538;-48
2023/01/30 18:40:38;;;;;;;3.80;1.90;;;23.50;45.50;;;;;;222083;1250;25326;-47
2023/01/30 18:45:45;;;;;;;3.80;1.90;;;23.60;45.60;;;;;;222002;1264;25444;-47
2023/01/30 18:50:51;;;;;;;2.90;1.90;;;23.60;45.20;;;;;;221946;1257;22604;-45
2023/01/30 18:55:57;;;;;;;2.90;2.00;;;23.70;45.10;;;;;;222058;1269;24216;-46
2023/01/30 19:01:13;;;;;;;5.10;1.90;;;23.70;45.00;;;;;;222046;1251;24212;-47
2023/01/30 19:06:21;;;;;;;5.10;1.50;;;23.70;44.90;;;;;;222081;1264;24292;-53
2023/01/30 19:16:55;;;;;;;5.10;2.00;;;23.70;45.10;;;;;;222318;1256;25552;-51
2023/01/30 19:22:03;;;;;;;5.70;1.80;;;23.70;44.90;;;;;;222041;1267;22529;-53
2023/01/30 19:27:12;;;;;;;1.90;1.70;;;23.70;45.20;;;;;;222203;1263;22580;-52
2023/01/30 19:32:20;;;;;;;3.80;1.80;;;23.70;45.20;;;;;;221712;1247;24025;-54
2023/01/30 19:37:27;;;;;;;3.90;1.70;;;23.60;44.90;;;;;;222097;1256;26646;-53
2023/01/30 19:42:39;;;;;;;10.30;2.30;;;23.60;44.80;;;;;;221074;1254;22677;-55
2023/01/30 19:47:48;;;;;;;6.60;1.40;;;23.50;45.90;;;;;;221112;1273;24208;-48
2023/01/30 19:52:54;;;;;;;5.00;2.00;;;23.30;46.20;;;;;;221191;1257;25425;-48
2023/01/30 19:58:02;;;;;;;5.40;1.60;;;23.20;46.40;;;;;;221261;1264;25365;-51
2023/01/30 20:10:02;;;;;;;4.90;1.60;;;22.90;46.60;;;;;;222106;1251;24190;-48
2023/01/30 20:15:09;;;;;;;17.60;4.30;;;22.80;47.10;;;;;;222128;1263;25426;-50
2023/01/30 20:20:15;;;;;;;12.30;2.50;;;22.80;48.80;;;;;;221964;1251;24388;-49
2023/01/30 20:25:22;;;;;;;15.10;3.10;;;22.90;48.40;;;;;;222208;1256;22533;-48
2023/01/30 20:30:29;;;;;;;16.50;3.30;;;22.70;49.10;;;;;;222287;1264;26513;-48
2023/01/30 20:35:36;;;;;;;11.80;3.60;;;22.70;48.50;;;;;;222072;1263;26585;-49
2023/01/30 20:40:46;;;;;;;23.60;3.90;;;22.60;48.90;;;;;;222299;1257;22805;-52
2023/01/30 20:46:26;;;;;;;15.80;4.00;;;22.50;49.60;;;;;;222227;1247;22865;-50
2023/01/30 20:51:36;;;;;;;18.20;4.70;;;22.40;49.80;;;;;;222131;1263;25316;-48
2023/01/30 20:56:45;;;;;;;22.30;5.80;;;22.30;49.80;;;;;;222038;1263;22766;-47
2023/01/30 21:01:53;;;;;;;19.40;5.20;;;22.40;49.80;;;;;;222097;1264;23119;-48
2023/01/30 21:07:00;;;;;;;17.60;4.70;;;22.40;49.80;;;;;;222207;1251;25489;-46
2023/01/30 21:12:05;;;;;;;16.60;5.80;;;22.40;50.30;;;;;;222169;1263;22520;-46
2023/01/30 21:17:11;;;;;;;13.10;5.00;;;22.30;50.40;;;;;;222184;1265;22527;-53
2023/01/30 21:22:17;;;;;;;12.20;4.90;;;22.20;50.40;;;;;;225292;1250;22477;-50
2023/01/30 21:27:23;;;;;;;16.90;6.70;;;22.30;50.50;;;;;;222197;1262;24215;-51
2023/01/30 21:32:30;;;;;;;16.80;6.20;;;22.00;52.80;;;;;;222094;1267;23915;-48
2023/01/30 21:43:18;;;;;;;13.10;5.40;;;21.80;54.40;;;;;;221686;1265;22676;-50
2023/01/30 21:48:23;;;;;;;15.50;6.50;;;22.00;53.60;;;;;;221989;1255;22546;-50
2023/01/30 21:53:32;;;;;;;12.90;5.00;;;21.90;53.70;;;;;;222108;1267;25294;-52
2023/01/30 21:58:38;;;;;;;15.90;5.50;;;21.90;53.10;;;;;;222124;1257;22528;-51
2023/01/30 22:03:48;;;;;;;13.50;5.10;;;21.80;52.80;;;;;;222232;1251;22531;-50
2023/01/30 22:09:01;;;;;;;13.30;4.80;;;21.70;53.20;;;;;;222240;1252;22498;-51
2023/01/30 22:14:05;;;;;;;14.10;4.00;;;21.70;57.00;;;;;;221999;1256;22994;-50
2023/01/30 22:19:10;;;;;;;11.40;4.70;;;21.70;57.30;;;;;;222263;1270;22640;-47
2023/01/30 22:24:17;;;;;;;16.20;5.00;;;21.60;55.70;;;;;;222144;1255;22777;-51
2023/01/30 22:29:28;;;;;;;9.30;3.80;;;21.70;55.20;;;;;;222145;1263;22750;-51
2023/01/30 22:34:39;;;;;;;13.20;4.80;;;21.60;55.30;;;;;;221885;1267;22669;-50
2023/01/30 22:39:48;;;;;;;12.10;4.60;;;21.50;55.20;;;;;;222105;1256;22770;-48
2023/01/30 22:44:54;;;;;;;11.50;4.20;;;21.80;54.60;;;;;;222250;1256;24764;-50
2023/01/30 22:50:03;;;;;;;9.70;4.60;;;22.30;53.60;;;;;;222253;1258;25501;-51
2023/01/30 22:55:13;;;;;;;11.70;4.00;;;22.70;52.60;;;;;;222273;1255;25506;-50
2023/01/30 23:00:19;;;;;;;8.80;4.50;;;22.90;51.80;;;;;;222216;1265;23869;-54
2023/01/30 23:05:24;;;;;;;11.20;4.50;;;23.10;51.40;;;;;;222158;1247;24305;-50
2023/01/30 23:10:29;;;;;;;9.60;3.80;;;23.20;51.00;;;;;;222323;1261;24241;-49
2023/01/30 23:15:36;;;;;;;8.70;3.90;;;23.30;50.90;;;;;;222145;1262;22541;-54
2023/01/30 23:20:42;;;;;;;11.50;4.10;;;23.20;50.90;;;;;;222227;1263;22532;-51
2023/01/30 23:25:46;;;;;;;6.80;3.80;;;23.20;50.90;;;;;;222252;1262;22616;-51
2023/01/30 23:30:51;;;;;;;10.20;3.90;;;23.30;50.70;;;;;;222118;1262;22709;-51
2023/01/30 23:36:01;;;;;;;9.80;3.50;;;23.30;51.20;;;;;;221932;1247;24064;-51
2023/01/30 23:41:12;;;;;;;10.30;3.90;;;23.30;51.00;;;;;;222121;1251;22510;-49
2023/01/30 23:46:22;;;;;;;8.30;3.20;;;23.30;51.40;;;;;;222256;1264;22536;-49
2023/01/30 23:51:29;;;;;;;11.80;3.50;;;23.30;51.10;;;;;;221964;1256;22544;-52
2023/01/30 23:56:35;;;;;;;6.40;3.40;;;23.40;51.20;;;;;;222184;1263;24264;-49
